sensor_id;sensor_type;location;lat;lon;timestamp;pressure;altitude;pressure_sealevel;temperature;humidity
64298;BME280;50639;53.270;7.956;2023-03-04T00:01:52;103754.47;;;6.93;100.00
64298;BME280;50639;53.270;7.956;2023-03-04T00:04:18;103801.63;;;6.94;100.00
64298;BME280;50639;53.270;7.956;2023-03-04T00:06:43;103739.28;;;6.93;100.00
64298;BME280;50639;53.270;7.956;2023-03-04T00:09:08;103686.63;;;6.94;100.00
64298;BME280;50639;53.270;7.956;2023-03-04T00:11:34;103524.69;;;6.90;100.00
64298;BME280;50639;53.270;7.956;2023-03-04T00:13:59;103508.94;;;6.87;100.00
64298;BME280;50639;53.270;7.956;2023-03-04T00:16:25;103462.63;;;6.86;100.00
64298;BME280;50639;53.270;7.956;2023-03-04T00:18:54;103474.19;;;6.87;100.00
64298;BME280;50639;53.270;7.956;2023-03-04T00:21:19;103661.00;;;6.91;100.00
64298;BME280;50639;53.270;7.956;2023-03-04T00:23:45;103704.63;;;6.92;100.00
64298;BME280;50639;53.270;7.956;2023-03-04T00:26:11;103846.16;;;6.95;100.00
64298;BME280;50639;53.270;7.956;2023-03-04T00:28:38;103653.09;;;6.90;100.00
64298;BME280;50639;53.270;7.956;2023-03-04T00:31:04;103571.16;;;6.89;100.00
64298;BME280;50639;53.270;7.956;2023-03-04T00:33:29;103699.28;;;6.92;100.00
64298;BME280;50639;53.270;7.956;2023-03-04T00:35:55;103722.53;;;6.91;100.00
64298;BME280;50639;53.270;7.956;2023-03-04T00:38:21;103704.91;;;6.89;100.00
64298;BME280;50639;53.270;7.956;2023-03-04T00:40:46;104028.06;;;6.95;100.00
64298;BME280;50639;53.270;7.956;2023-03-04T00:43:11;104149.19;;;6.97;100.00
64298;BME280;50639;53.270;7.956;2023-03-04T00:45:37;104119.88;;;6.95;100.00
64298;BME280;50639;53.270;7.956;2023-03-04T00:48:02;103979.19;;;6.93;100.00
64298;BME280;50639;53.270;7.956;2023-03-04T00:50:28;104165.22;;;6.97;100.00
64298;BME280;50639;53.270;7.956;2023-03-04T00:52:53;104249.84;;;6.98;100.00
64298;BME280;50639;53.270;7.956;2023-03-04T00:55:18;104093.22;;;6.94;100.00
64298;BME280;50639;53.270;7.956;2023-03-04T00:57:44;104085.19;;;6.94;100.00
64298;BME280;50639;53.270;7.956;2023-03-04T01:00:09;104349.59;;;7.00;100.00
64298;BME280;50639;53.270;7.956;2023-03-04T01:02:35;104274.91;;;6.97;100.00
64298;BME280;50639;53.270;7.956;2023-03-04T01:05:00;104068.41;;;6.92;100.00
64298;BME280;50639;53.270;7.956;2023-03-04T01:07:26;104349.59;;;7.00;100.00
64298;BME280;50639;53.270;7.956;2023-03-04T01:09:51;104433.28;;;7.02;100.00
64298;BME280;50639;53.270;7.956;2023-03-04T01:12:17;104249.84;;;6.98;100.00
64298;BME280;50639;53.270;7.956;2023-03-04T01:14:42;104298.75;;;7.00;100.00
64298;BME280;50639;53.270;7.956;2023-03-04T01:17:08;104239.16;;;6.98;100.00
64298;BME280;50639;53.270;7.956;2023-03-04T01:19:33;104264.22;;;6.97;100.00
64298;BME280;50639;53.270;7.956;2023-03-04T01:21:58;104394.97;;;7.01;100.00
64298;BME280;50639;53.270;7.956;2023-03-04T01:24:24;104285.50;;;6.98;100.00
64298;BME280;50639;53.270;7.956;2023-03-04T01:26:49;104252.53;;;6.98;100.00
64298;BME280;50639;53.270;7.956;2023-03-04T01:29:16;104027.34;;;6.93;100.00
64298;BME280;50639;53.270;7.956;2023-03-04T01:31:41;103895.53;;;6.91;100.00
64298;BME280;50639;53.270;7.956;2023-03-04T01:34:06;103683.75;;;6.86;100.00
64298;BME280;50639;53.270;7.956;2023-03-04T01:36:34;103584.94;;;6.84;100.00
64298;BME280;50639;53.270;7.956;2023-03-04T01:39:00;103616.06;;;6.85;100.00
64298;BME280;50639;53.270;7.956;2023-03-04T01:41:25;103513.75;;;6.83;100.00
64298;BME280;50639;53.270;7.956;2023-03-04T01:43:52;103436.28;;;6.82;100.00
64298;BME280;50639;53.270;7.956;2023-03-04T01:46:19;103655.06;;;6.88;100.00
64298;BME280;50639;53.270;7.956;2023-03-04T01:48:45;103670.13;;;6.89;100.00
64298;BME280;50639;53.270;7.956;2023-03-04T01:51:16;103854.31;;;6.93;100.00
64298;BME280;50639;53.270;7.956;2023-03-04T01:53:42;103631.13;;;6.86;100.00
64298;BME280;50639;53.270;7.956;2023-03-04T01:56:23;103806.28;;;6.92;100.00
64298;BME280;50639;53.270;7.956;2023-03-04T02:01:33;103781.47;;;6.90;100.00
64298;BME280;50639;53.270;7.956;2023-03-04T02:03:58;103468.38;;;6.82;100.00
64298;BME280;50639;53.270;7.956;2023-03-04T02:06:24;103548.34;;;6.85;100.00
64298;BME280;50639;53.270;7.956;2023-03-04T02:08:49;103470.09;;;6.83;100.00
64298;BME280;50639;53.270;7.956;2023-03-04T02:11:15;103597.22;;;6.87;100.00
64298;BME280;50639;53.270;7.956;2023-03-04T02:13:40;103478.81;;;6.85;100.00
64298;BME280;50639;53.270;7.956;2023-03-04T02:16:06;103433.34;;;6.85;100.00
64298;BME280;50639;53.270;7.956;2023-03-04T02:18:31;103266.16;;;6.81;100.00
64298;BME280;50639;53.270;7.956;2023-03-04T02:23:37;103096.31;;;6.77;100.00
64298;BME280;50639;53.270;7.956;2023-03-04T02:26:12;103104.31;;;6.77;100.00
64298;BME280;50639;53.270;7.956;2023-03-04T02:28:38;103156.69;;;6.79;100.00
64298;BME280;50639;53.270;7.956;2023-03-04T02:31:04;103165.66;;;6.78;100.00
64298;BME280;50639;53.270;7.956;2023-03-04T02:33:29;103263.47;;;6.81;100.00
64298;BME280;50639;53.270;7.956;2023-03-04T02:35:57;103521.31;;;6.88;100.00
64298;BME280;50639;53.270;7.956;2023-03-04T02:38:22;103364.78;;;6.84;100.00
64298;BME280;50639;53.270;7.956;2023-03-04T02:40:48;103235.03;;;6.80;100.00
64298;BME280;50639;53.270;7.956;2023-03-04T02:43:15;103273.31;;;6.80;100.00
64298;BME280;50639;53.270;7.956;2023-03-04T02:45:42;103356.94;;;6.82;100.00
64298;BME280;50639;53.270;7.956;2023-03-04T02:48:09;103284.88;;;6.81;100.00
64298;BME280;50639;53.270;7.956;2023-03-04T02:50:37;103041.44;;;6.72;100.00
64298;BME280;50639;53.270;7.956;2023-03-04T02:53:06;103270.81;;;6.79;100.00
64298;BME280;50639;53.270;7.956;2023-03-04T02:55:32;103135.72;;;6.74;100.00
64298;BME280;50639;53.270;7.956;2023-03-04T02:57:58;103371.41;;;6.80;100.00
64298;BME280;50639;53.270;7.956;2023-03-04T03:00:23;103255.03;;;6.75;100.00
64298;BME280;50639;53.270;7.956;2023-03-04T03:02:49;103489.78;;;6.82;100.00
64298;BME280;50639;53.270;7.956;2023-03-04T03:05:14;103639.28;;;6.85;100.00
64298;BME280;50639;53.270;7.956;2023-03-04T03:07:41;103602.00;;;6.83;100.00
64298;BME280;50639;53.270;7.956;2023-03-04T03:10:07;103621.53;;;6.84;100.00
64298;BME280;50639;53.270;7.956;2023-03-04T03:12:32;103690.09;;;6.85;100.00
64298;BME280;50639;53.270;7.956;2023-03-04T03:14:58;103694.47;;;6.86;100.00
64298;BME280;50639;53.270;7.956;2023-03-04T03:17:24;103722.91;;;6.87;100.00
64298;BME280;50639;53.270;7.956;2023-03-04T03:19:49;103822.59;;;6.89;100.00
64298;BME280;50639;53.270;7.956;2023-03-04T03:22:14;103706.88;;;6.87;100.00
64298;BME280;50639;53.270;7.956;2023-03-04T03:24:40;103686.31;;;6.87;100.00
64298;BME280;50639;53.270;7.956;2023-03-04T03:27:05;103653.38;;;6.87;100.00
64298;BME280;50639;53.270;7.956;2023-03-04T03:29:31;103749.38;;;6.90;100.00
64298;BME280;50639;53.270;7.956;2023-03-04T03:31:57;103711.94;;;6.90;100.00
64298;BME280;50639;53.270;7.956;2023-03-04T03:34:22;103554.41;;;6.87;100.00
64298;BME280;50639;53.270;7.956;2023-03-04T03:36:49;103599.75;;;6.88;100.00
64298;BME280;50639;53.270;7.956;2023-03-04T03:39:14;103420.13;;;6.83;100.00
64298;BME280;50639;53.270;7.956;2023-03-04T03:41:40;103677.06;;;6.91;100.00
64298;BME280;50639;53.270;7.956;2023-03-04T03:44:05;103683.22;;;6.92;100.00
64298;BME280;50639;53.270;7.956;2023-03-04T03:46:31;103696.59;;;6.92;100.00
64298;BME280;50639;53.270;7.956;2023-03-04T03:48:56;103380.03;;;6.83;100.00
64298;BME280;50639;53.270;7.956;2023-03-04T03:51:21;103341.72;;;6.83;100.00
64298;BME280;50639;53.270;7.956;2023-03-04T03:53:46;103346.06;;;6.84;100.00
64298;BME280;50639;53.270;7.956;2023-03-04T03:56:12;103563.00;;;6.90;100.00
64298;BME280;50639;53.270;7.956;2023-03-04T03:58:37;103431.25;;;6.88;100.00
64298;BME280;50639;53.270;7.956;2023-03-04T04:01:02;103263.19;;;6.84;100.00
64298;BME280;50639;53.270;7.956;2023-03-04T04:03:28;103145.81;;;6.81;100.00
64298;BME280;50639;53.270;7.956;2023-03-04T04:05:54;103070.25;;;6.79;100.00
64298;BME280;50639;53.270;7.956;2023-03-04T04:08:19;103126.09;;;6.82;100.00
64298;BME280;50639;53.270;7.956;2023-03-04T04:10:44;103005.25;;;6.78;100.00
64298;BME280;50639;53.270;7.956;2023-03-04T04:13:10;103247.13;;;6.84;100.00
64298;BME280;50639;53.270;7.956;2023-03-04T04:15:35;103182.94;;;6.84;100.00
64298;BME280;50639;53.270;7.956;2023-03-04T04:18:02;103368.75;;;6.89;100.00
64298;BME280;50639;53.270;7.956;2023-03-04T04:20:28;103005.94;;;6.80;100.00
64298;BME280;50639;53.270;7.956;2023-03-04T04:22:53;103008.75;;;6.79;100.00
64298;BME280;50639;53.270;7.956;2023-03-04T04:25:18;102818.69;;;6.72;100.00
64298;BME280;50639;53.270;7.956;2023-03-04T04:27:44;102708.88;;;6.65;100.00
64298;BME280;50639;53.270;7.956;2023-03-04T04:30:10;102661.09;;;6.62;100.00
64298;BME280;50639;53.270;7.956;2023-03-04T04:32:35;102553.97;;;6.56;100.00
64298;BME280;50639;53.270;7.956;2023-03-04T04:35:01;102688.13;;;6.59;100.00
64298;BME280;50639;53.270;7.956;2023-03-04T04:37:26;102634.66;;;6.59;100.00
64298;BME280;50639;53.270;7.956;2023-03-04T04:39:51;102710.34;;;6.60;100.00
64298;BME280;50639;53.270;7.956;2023-03-04T04:42:19;102559.66;;;6.53;100.00
64298;BME280;50639;53.270;7.956;2023-03-04T04:44:44;102636.13;;;6.54;100.00
64298;BME280;50639;53.270;7.956;2023-03-04T04:47:10;102600.72;;;6.52;100.00
64298;BME280;50639;53.270;7.956;2023-03-04T04:49:35;102515.00;;;6.45;100.00
64298;BME280;50639;53.270;7.956;2023-03-04T04:52:01;102617.91;;;6.49;100.00
64298;BME280;50639;53.270;7.956;2023-03-04T04:54:26;102752.88;;;6.53;100.00
64298;BME280;50639;53.270;7.956;2023-03-04T04:56:52;102596.53;;;6.49;100.00
64298;BME280;50639;53.270;7.956;2023-03-04T04:59:17;102415.25;;;6.37;100.00
64298;BME280;50639;53.270;7.956;2023-03-04T05:01:42;102551.03;;;6.41;100.00
64298;BME280;50639;53.270;7.956;2023-03-04T05:04:08;102723.13;;;6.48;100.00
64298;BME280;50639;53.270;7.956;2023-03-04T05:06:33;102466.56;;;6.40;100.00
64298;BME280;50639;53.270;7.956;2023-03-04T05:08:59;102564.06;;;6.36;100.00
64298;BME280;50639;53.270;7.956;2023-03-04T05:11:24;102413.78;;;6.34;100.00
64298;BME280;50639;53.270;7.956;2023-03-04T05:13:49;102425.78;;;6.30;100.00
64298;BME280;50639;53.270;7.956;2023-03-04T05:16:15;102428.44;;;6.30;100.00
64298;BME280;50639;53.270;7.956;2023-03-04T05:18:41;102453.00;;;6.34;100.00
64298;BME280;50639;53.270;7.956;2023-03-04T05:21:06;102424.59;;;6.33;100.00
64298;BME280;50639;53.270;7.956;2023-03-04T05:23:34;102569.75;;;6.41;100.00
64298;BME280;50639;53.270;7.956;2023-03-04T05:26:00;102588.16;;;6.44;100.00
64298;BME280;50639;53.270;7.956;2023-03-04T05:28:25;102430.13;;;6.39;100.00
64298;BME280;50639;53.270;7.956;2023-03-04T05:30:50;102553.41;;;6.44;100.00
64298;BME280;50639;53.270;7.956;2023-03-04T05:33:16;102427.16;;;6.42;100.00
64298;BME280;50639;53.270;7.956;2023-03-04T05:35:42;102492.81;;;6.45;100.00
64298;BME280;50639;53.270;7.956;2023-03-04T05:38:09;102172.03;;;6.30;100.00
64298;BME280;50639;53.270;7.956;2023-03-04T05:40:36;102228.94;;;6.31;100.00
64298;BME280;50639;53.270;7.956;2023-03-04T05:43:02;102149.63;;;6.31;100.00
64298;BME280;50639;53.270;7.956;2023-03-04T05:45:27;102128.63;;;6.28;100.00
64298;BME280;50639;53.270;7.956;2023-03-04T05:47:53;102033.81;;;6.24;100.00
64298;BME280;50639;53.270;7.956;2023-03-04T05:50:19;101984.72;;;6.25;100.00
64298;BME280;50639;53.270;7.956;2023-03-04T05:52:45;102051.00;;;6.30;100.00
64298;BME280;50639;53.270;7.956;2023-03-04T05:55:11;102053.31;;;6.33;100.00
64298;BME280;50639;53.270;7.956;2023-03-04T05:57:36;102018.44;;;6.34;100.00
64298;BME280;50639;53.270;7.956;2023-03-04T06:00:02;101973.34;;;6.31;100.00
64298;BME280;50639;53.270;7.956;2023-03-04T06:02:37;101948.66;;;6.29;100.00
64298;BME280;50639;53.270;7.956;2023-03-04T06:05:03;102017.25;;;6.29;100.00
64298;BME280;50639;53.270;7.956;2023-03-04T06:07:29;101926.63;;;6.27;100.00
64298;BME280;50639;53.270;7.956;2023-03-04T06:09:54;101954.34;;;6.26;100.00
64298;BME280;50639;53.270;7.956;2023-03-04T06:12:20;101979.72;;;6.30;100.00
64298;BME280;50639;53.270;7.956;2023-03-04T06:14:45;101998.06;;;6.33;100.00
64298;BME280;50639;53.270;7.956;2023-03-04T06:17:10;101992.53;;;6.35;100.00
64298;BME280;50639;53.270;7.956;2023-03-04T06:19:36;101949.97;;;6.33;100.00
64298;BME280;50639;53.270;7.956;2023-03-04T06:22:02;101903.91;;;6.31;100.00
64298;BME280;50639;53.270;7.956;2023-03-04T06:24:28;101974.66;;;6.35;100.00
64298;BME280;50639;53.270;7.956;2023-03-04T06:26:53;101965.34;;;6.31;100.00
64298;BME280;50639;53.270;7.956;2023-03-04T06:29:18;102016.94;;;6.32;100.00
64298;BME280;50639;53.270;7.956;2023-03-04T06:31:44;101993.06;;;6.30;100.00
64298;BME280;50639;53.270;7.956;2023-03-04T06:34:09;102076.53;;;6.32;100.00
64298;BME280;50639;53.270;7.956;2023-03-04T06:36:34;102195.53;;;6.35;100.00
64298;BME280;50639;53.270;7.956;2023-03-04T06:39:03;102172.34;;;6.35;100.00
64298;BME280;50639;53.270;7.956;2023-03-04T06:41:29;102152.13;;;6.33;100.00
64298;BME280;50639;53.270;7.956;2023-03-04T06:43:55;102346.66;;;6.37;100.00
64298;BME280;50639;53.270;7.956;2023-03-04T06:46:20;102440.19;;;6.45;100.00
64298;BME280;50639;53.270;7.956;2023-03-04T06:48:46;102437.69;;;6.44;100.00
64298;BME280;50639;53.270;7.956;2023-03-04T06:51:11;102657.00;;;6.50;100.00
64298;BME280;50639;53.270;7.956;2023-03-04T06:53:37;102735.03;;;6.54;100.00
64298;BME280;50639;53.270;7.956;2023-03-04T06:56:03;102675.03;;;6.48;100.00
64298;BME280;50639;53.270;7.956;2023-03-04T06:58:29;102913.78;;;6.57;100.00
64298;BME280;50639;53.270;7.956;2023-03-04T07:00:54;103003.81;;;6.56;100.00
64298;BME280;50639;53.270;7.956;2023-03-04T07:03:19;102954.00;;;6.55;100.00
64298;BME280;50639;53.270;7.956;2023-03-04T07:05:45;103229.75;;;6.60;100.00
64298;BME280;50639;53.270;7.956;2023-03-04T07:08:10;103417.44;;;6.64;100.00
64298;BME280;50639;53.270;7.956;2023-03-04T07:10:36;103520.59;;;6.66;100.00
64298;BME280;50639;53.270;7.956;2023-03-04T07:13:01;103699.72;;;6.66;100.00
64298;BME280;50639;53.270;7.956;2023-03-04T07:15:26;103873.38;;;6.68;100.00
64298;BME280;50639;53.270;7.956;2023-03-04T07:17:52;103952.50;;;6.70;100.00
64298;BME280;50639;53.270;7.956;2023-03-04T07:20:17;104142.84;;;6.75;100.00
64298;BME280;50639;53.270;7.956;2023-03-04T07:22:43;104062.88;;;6.72;100.00
64298;BME280;50639;53.270;7.956;2023-03-04T07:25:08;104321.09;;;6.77;100.00
64298;BME280;50639;53.270;7.956;2023-03-04T07:27:34;104367.50;;;6.75;100.00
64298;BME280;50639;53.270;7.956;2023-03-04T07:30:00;104267.81;;;6.73;100.00
64298;BME280;50639;53.270;7.956;2023-03-04T07:32:25;104217.75;;;6.75;100.00
64298;BME280;50639;53.270;7.956;2023-03-04T07:34:53;103914.22;;;6.70;100.00
64298;BME280;50639;53.270;7.956;2023-03-04T07:37:19;103765.56;;;6.67;100.00
64298;BME280;50639;53.270;7.956;2023-03-04T07:39:44;103866.66;;;6.73;100.00
64298;BME280;50639;53.270;7.956;2023-03-04T07:42:09;103578.41;;;6.67;100.00
64298;BME280;50639;53.270;7.956;2023-03-04T07:44:39;103406.72;;;6.64;100.00
64298;BME280;50639;53.270;7.956;2023-03-04T07:47:04;103828.72;;;6.80;100.00
64298;BME280;50639;53.270;7.956;2023-03-04T07:49:29;103877.47;;;6.83;100.00
64298;BME280;50639;53.270;7.956;2023-03-04T07:51:55;103592.94;;;6.74;100.00
64298;BME280;50639;53.270;7.956;2023-03-04T07:54:20;103757.88;;;6.74;100.00
64298;BME280;50639;53.270;7.956;2023-03-04T07:56:45;103791.06;;;6.71;100.00
64298;BME280;50639;53.270;7.956;2023-03-04T07:59:11;103983.50;;;6.73;100.00
64298;BME280;50639;53.270;7.956;2023-03-04T08:01:36;104222.34;;;6.73;100.00
64298;BME280;50639;53.270;7.956;2023-03-04T08:04:03;104590.25;;;6.78;100.00
64298;BME280;50639;53.270;7.956;2023-03-04T08:06:28;104918.25;;;6.80;100.00
64298;BME280;50639;53.270;7.956;2023-03-04T08:08:55;105401.47;;;6.83;100.00
64298;BME280;50639;53.270;7.956;2023-03-04T08:11:21;105737.66;;;6.84;100.00
64298;BME280;50639;53.270;7.956;2023-03-04T08:13:46;105868.97;;;6.81;100.00
64298;BME280;50639;53.270;7.956;2023-03-04T08:16:12;105986.88;;;6.78;100.00
64298;BME280;50639;53.270;7.956;2023-03-04T08:18:40;106005.69;;;6.76;100.00
64298;BME280;50639;53.270;7.956;2023-03-04T08:21:09;106180.00;;;6.87;100.00
64298;BME280;50639;53.270;7.956;2023-03-04T08:23:35;105855.34;;;6.85;100.00
64298;BME280;50639;53.270;7.956;2023-03-04T08:26:04;105509.53;;;6.80;100.00
64298;BME280;50639;53.270;7.956;2023-03-04T08:28:30;105500.72;;;6.78;100.00
64298;BME280;50639;53.270;7.956;2023-03-04T08:30:55;105930.03;;;6.90;100.00
64298;BME280;50639;53.270;7.956;2023-03-04T08:33:21;105634.00;;;6.87;100.00
64298;BME280;50639;53.270;7.956;2023-03-04T08:35:46;105305.31;;;6.80;100.00
64298;BME280;50639;53.270;7.956;2023-03-04T08:38:12;105080.97;;;6.73;100.00
64298;BME280;50639;53.270;7.956;2023-03-04T08:40:37;104769.16;;;6.69;100.00
64298;BME280;50639;53.270;7.956;2023-03-04T08:43:02;104221.84;;;6.57;100.00
64298;BME280;50639;53.270;7.956;2023-03-04T08:45:28;103909.03;;;6.57;100.00
64298;BME280;50639;53.270;7.956;2023-03-04T08:47:53;104168.13;;;6.71;100.00
64298;BME280;50639;53.270;7.956;2023-03-04T08:50:18;104343.34;;;6.77;100.00
64298;BME280;50639;53.270;7.956;2023-03-04T08:52:44;104540.59;;;6.86;100.00
64298;BME280;50639;53.270;7.956;2023-03-04T08:55:09;104925.66;;;7.02;100.00
64298;BME280;50639;53.270;7.956;2023-03-04T08:57:34;104735.78;;;7.00;100.00
64298;BME280;50639;53.270;7.956;2023-03-04T09:00:00;104541.00;;;6.93;100.00
64298;BME280;50639;53.270;7.956;2023-03-04T09:02:25;104545.50;;;6.92;100.00
64298;BME280;50639;53.270;7.956;2023-03-04T09:04:50;103751.81;;;6.72;100.00
64298;BME280;50639;53.270;7.956;2023-03-04T09:07:16;103127.75;;;6.55;100.00
64298;BME280;50639;53.270;7.956;2023-03-04T09:09:41;102950.13;;;6.50;100.00
64298;BME280;50639;53.270;7.956;2023-03-04T09:12:07;102845.53;;;6.45;100.00
64298;BME280;50639;53.270;7.956;2023-03-04T09:14:33;102965.50;;;6.38;100.00
64298;BME280;50639;53.270;7.956;2023-03-04T09:17:00;103902.94;;;6.66;100.00
64298;BME280;50639;53.270;7.956;2023-03-04T09:19:25;104216.06;;;6.74;100.00
64298;BME280;50639;53.270;7.956;2023-03-04T09:21:52;104535.81;;;6.79;100.00
64298;BME280;50639;53.270;7.956;2023-03-04T09:24:19;104880.25;;;6.88;100.00
64298;BME280;50639;53.270;7.956;2023-03-04T09:26:44;104712.16;;;6.69;100.00
64298;BME280;50639;53.270;7.956;2023-03-04T09:29:13;105419.22;;;6.84;100.00
64298;BME280;50639;53.270;7.956;2023-03-04T09:31:39;105586.00;;;6.84;100.00
64298;BME280;50639;53.270;7.956;2023-03-04T09:34:04;106158.19;;;6.95;100.00
64298;BME280;50639;53.270;7.956;2023-03-04T09:36:29;106164.34;;;6.97;100.00
64298;BME280;50639;53.270;7.956;2023-03-04T09:38:57;106351.19;;;7.09;100.00
64298;BME280;50639;53.270;7.956;2023-03-04T09:41:24;106317.16;;;7.11;100.00
64298;BME280;50639;53.270;7.956;2023-03-04T09:43:51;106609.75;;;7.16;100.00
64298;BME280;50639;53.270;7.956;2023-03-04T09:46:18;106937.25;;;7.19;100.00
64298;BME280;50639;53.270;7.956;2023-03-04T09:48:48;106622.44;;;7.11;100.00
64298;BME280;50639;53.270;7.956;2023-03-04T09:54:01;106208.97;;;7.15;100.00
64298;BME280;50639;53.270;7.956;2023-03-04T09:56:31;105697.22;;;7.05;100.00
64298;BME280;50639;53.270;7.956;2023-03-04T10:04:11;103341.59;;;6.65;100.00
64298;BME280;50639;53.270;7.956;2023-03-04T10:06:38;102816.50;;;6.50;100.00
64298;BME280;50639;53.270;7.956;2023-03-04T10:09:15;102795.28;;;6.48;100.00
64298;BME280;50639;53.270;7.956;2023-03-04T10:12:05;102516.78;;;6.37;100.00
64298;BME280;50639;53.270;7.956;2023-03-04T10:17:20;104509.50;;;6.96;100.00
64298;BME280;50639;53.270;7.956;2023-03-04T10:24:48;104485.03;;;6.90;100.00
64298;BME280;50639;53.270;7.956;2023-03-04T10:27:16;104518.84;;;6.91;100.00
64298;BME280;50639;53.270;7.956;2023-03-04T10:29:43;103970.22;;;6.83;100.00
64298;BME280;50639;53.270;7.956;2023-03-04T10:32:18;104370.63;;;6.93;100.00
64298;BME280;50639;53.270;7.956;2023-03-04T10:34:44;104635.41;;;6.95;100.00
64298;BME280;50639;53.270;7.956;2023-03-04T10:37:09;105130.22;;;7.12;100.00
64298;BME280;50639;53.270;7.956;2023-03-04T10:44:26;105085.09;;;7.45;100.00
64298;BME280;50639;53.270;7.956;2023-03-04T10:46:53;105353.31;;;7.53;100.00
64298;BME280;50639;53.270;7.956;2023-03-04T10:49:19;105385.28;;;7.56;100.00
64298;BME280;50639;53.270;7.956;2023-03-04T10:51:46;104382.63;;;7.33;100.00
64298;BME280;50639;53.270;7.956;2023-03-04T10:54:28;104676.34;;;7.44;100.00
64298;BME280;50639;53.270;7.956;2023-03-04T11:02:13;103871.56;;;7.30;100.00
64298;BME280;50639;53.270;7.956;2023-03-04T11:04:39;104375.22;;;7.48;100.00
64298;BME280;50639;53.270;7.956;2023-03-04T11:07:08;103196.03;;;7.23;100.00
64298;BME280;50639;53.270;7.956;2023-03-04T11:09:34;102389.88;;;6.99;100.00
64298;BME280;50639;53.270;7.956;2023-03-04T11:12:00;101698.81;;;6.64;100.00
64298;BME280;50639;53.270;7.956;2023-03-04T11:17:18;102322.00;;;6.75;100.00
64298;BME280;50639;53.270;7.956;2023-03-04T11:19:44;102766.50;;;6.86;100.00
64298;BME280;50639;53.270;7.956;2023-03-04T11:22:14;103191.66;;;6.95;100.00
64298;BME280;50639;53.270;7.956;2023-03-04T11:24:41;103534.28;;;7.02;100.00
64298;BME280;50639;53.270;7.956;2023-03-04T11:27:10;104134.31;;;7.15;100.00
64298;BME280;50639;53.270;7.956;2023-03-04T11:29:41;104180.31;;;7.20;100.00
64298;BME280;50639;53.270;7.956;2023-03-04T11:34:41;103231.31;;;7.00;100.00
64298;BME280;50639;53.270;7.956;2023-03-04T11:37:15;103599.97;;;7.15;100.00
64298;BME280;50639;53.270;7.956;2023-03-04T11:39:54;103522.22;;;7.17;100.00
64298;BME280;50639;53.270;7.956;2023-03-04T11:42:37;104041.56;;;7.25;100.00
64298;BME280;50639;53.270;7.956;2023-03-04T11:45:15;104725.50;;;7.43;100.00
64298;BME280;50639;53.270;7.956;2023-03-04T11:50:25;104300.13;;;7.27;100.00
64298;BME280;50639;53.270;7.956;2023-03-04T11:53:02;104354.41;;;7.29;100.00
64298;BME280;50639;53.270;7.956;2023-03-04T11:58:19;104454.44;;;7.39;100.00
64298;BME280;50639;53.270;7.956;2023-03-04T12:00:51;102951.16;;;7.02;100.00
64298;BME280;50639;53.270;7.956;2023-03-04T12:06:17;101877.72;;;6.57;100.00
64298;BME280;50639;53.270;7.956;2023-03-04T12:08:59;103631.31;;;7.04;100.00
64298;BME280;50639;53.270;7.956;2023-03-04T12:14:20;103680.72;;;7.00;100.00
64298;BME280;50639;53.270;7.956;2023-03-04T12:16:57;104260.44;;;7.10;100.00
64298;BME280;50639;53.270;7.956;2023-03-04T12:29:28;104038.16;;;7.34;100.00
64298;BME280;50639;53.270;7.956;2023-03-04T12:42:29;103169.91;;;7.08;100.00
64298;BME280;50639;53.270;7.956;2023-03-04T12:49:59;102801.03;;;6.97;100.00
64298;BME280;50639;53.270;7.956;2023-03-04T12:55:11;103184.72;;;7.02;100.00
64298;BME280;50639;53.270;7.956;2023-03-04T12:57:39;102679.78;;;6.88;100.00
64298;BME280;50639;53.270;7.956;2023-03-04T13:07:48;103719.13;;;7.19;100.00
64298;BME280;50639;53.270;7.956;2023-03-04T13:10:17;103308.59;;;7.12;100.00
64298;BME280;50639;53.270;7.956;2023-03-04T13:12:57;103164.13;;;7.12;100.00
64298;BME280;50639;53.270;7.956;2023-03-04T13:17:49;103605.63;;;7.31;100.00
64298;BME280;50639;53.270;7.956;2023-03-04T13:38:22;103166.66;;;7.41;100.00
64298;BME280;50639;53.270;7.956;2023-03-04T13:51:24;101716.22;;;6.97;100.00
64298;BME280;50639;53.270;7.956;2023-03-04T14:01:34;102094.06;;;6.90;100.00
64298;BME280;50639;53.270;7.956;2023-03-04T14:04:07;102750.94;;;7.07;100.00
64298;BME280;50639;53.270;7.956;2023-03-04T14:06:34;102413.56;;;6.94;100.00
64298;BME280;50639;53.270;7.956;2023-03-04T14:08:59;102591.59;;;6.96;100.00
64298;BME280;50639;53.270;7.956;2023-03-04T14:11:40;103176.69;;;7.12;100.00
64298;BME280;50639;53.270;7.956;2023-03-04T14:14:12;102763.25;;;7.00;100.00
64298;BME280;50639;53.270;7.956;2023-03-04T14:16:39;102374.13;;;6.88;100.00
64298;BME280;50639;53.270;7.956;2023-03-04T14:19:14;102473.06;;;6.88;100.00
64298;BME280;50639;53.270;7.956;2023-03-04T14:21:43;102405.88;;;6.83;100.00
64298;BME280;50639;53.270;7.956;2023-03-04T14:24:12;102261.53;;;6.74;100.00
64298;BME280;50639;53.270;7.956;2023-03-04T14:26:38;102108.53;;;6.64;100.00
64298;BME280;50639;53.270;7.956;2023-03-04T14:29:17;101940.72;;;6.52;100.00
64298;BME280;50639;53.270;7.956;2023-03-04T14:31:43;102429.88;;;6.58;100.00
64298;BME280;50639;53.270;7.956;2023-03-04T14:34:22;102643.06;;;6.64;100.00
64298;BME280;50639;53.270;7.956;2023-03-04T14:36:48;102835.19;;;6.67;100.00
64298;BME280;50639;53.270;7.956;2023-03-04T14:39:16;102562.50;;;6.59;100.00
64298;BME280;50639;53.270;7.956;2023-03-04T14:41:43;102165.16;;;6.44;100.00
64298;BME280;50639;53.270;7.956;2023-03-04T14:46:52;102522.03;;;6.46;100.00
64298;BME280;50639;53.270;7.956;2023-03-04T14:49:19;102206.09;;;6.36;100.00
64298;BME280;50639;53.270;7.956;2023-03-04T14:56:54;102603.97;;;6.38;100.00
64298;BME280;50639;53.270;7.956;2023-03-04T14:59:41;102543.84;;;6.34;100.00